Silistra, Bulgaria

3:52 PM EET on January 25, 2015 (GMT +0200)
M. Kogalniceanu | Change Station
CLOSE
Current Station
Airport
Location: Kogalniceanu,
Elevation: 335 ft
Nearby Weather Stations

Elev 335 ft 44.33 °N, 28.43 °E | Updated 22 minutes ago

Fog
Fog
45 °F
Feels Like 43 °F
N
4
Wind Variable Wind from ENE

Today
High -- | Low -- °F
--% Chance of Precip.
Yesterday
High -- | Low -- °F
Precip. -- in
7:36 AM 5:10 PM
Waxing Crescent, 32% visible
Pressure 29.92 in
Visibility 0.2 miles
Clouds Mostly Cloudy 100 ft
Windchill 43 °F
Dew Point 45 °F
Humidity 100%
Rainfall 0.00 in
Snow Depth Not available.
UV 0 out of 12
Pollen Not available.
Air Quality Not available.
Flu Activity Not available.
METAR LRCK 251330Z 07003KT 040V100 0400 R36/0900U FG SCT000 BKN001 07/07 Q1013 RMK R36/19//95 NOSIG

More Conditions Fewer Conditions

Pressure 29.92 in
Visibility 0.2 miles
Clouds Mostly Cloudy 100 ft
Windchill 43 °F
Dew Point 45 °F
Humidity 100%
Rainfall 0.00 in
Snow Depth Not available.
UV 0 out of 12
Pollen Not available.
Air Quality Not available.
Flu Activity Not available.
METAR LRCK 251330Z 07003KT 040V100 0400 R36/0900U FG SCT000 BKN001 07/07 Q1013 RMK R36/19//95 NOSIG

More Conditions Fewer Conditions

10-Day Weather Forecast

Almanac

Astronomy

Jan. 25, 2015 Rise Set
Actual Time
Civil Twilight
Nautical Twilight
Astronomical Twilight
Moon
Length of Visible Light
Length of Day
Tomorrow will be .
, % of the Moon is Illuminated

Today's Extremes

Country Highs Country Lows

Community

WunderPhotos

Upload Photos

1,789,885 photos uploaded!

WunderBlogs® & News

Nearby

Air Quality

  Air Quality AQ Index Pollutant
Not available.

Snow Depth

Station Depth Elevation

Earthquake Activity

City Distance Mag. Time & Date
Minimum magnitude displayed is 2.5.

Coastal Water Temperatures

Place Temperature

Nearby Weather Stations